createdAt,value
2019-03-16T00:00:34.671Z,10.74
2019-03-16T00:03:25.360Z,10.71
2019-03-16T00:06:15.856Z,10.74
2019-03-16T00:09:08.292Z,10.85
2019-03-16T00:11:58.826Z,10.82
2019-03-16T00:14:50.348Z,10.91
2019-03-16T00:17:40.777Z,10.84
2019-03-16T00:20:31.187Z,10.83
2019-03-16T00:23:21.272Z,10.80
2019-03-16T00:26:11.561Z,10.92
2019-03-16T00:29:01.849Z,10.84
2019-03-16T00:31:51.839Z,10.83
2019-03-16T00:34:44.679Z,10.73
2019-03-16T00:37:35.239Z,10.78
2019-03-16T00:40:25.544Z,10.83
2019-03-16T00:43:15.945Z,10.81
2019-03-16T00:46:06.741Z,10.78
2019-03-16T00:48:57.264Z,10.86
2019-03-16T00:51:47.815Z,10.78
2019-03-16T00:54:38.520Z,10.83
2019-03-16T00:57:28.945Z,10.82
2019-03-16T01:00:19.372Z,10.78
2019-03-16T01:03:09.732Z,10.55
2019-03-16T01:06:00.070Z,10.74
2019-03-16T01:08:50.654Z,10.70
2019-03-16T01:11:40.749Z,10.71
2019-03-16T01:14:30.977Z,10.65
2019-03-16T01:17:21.400Z,10.62
2019-03-16T01:20:11.730Z,10.56
2019-03-16T01:23:02.253Z,10.48
2019-03-16T01:25:52.495Z,10.47
2019-03-16T01:28:42.793Z,10.51
2019-03-16T01:31:33.113Z,10.60
2019-03-16T01:34:23.193Z,10.63
2019-03-16T01:37:13.509Z,10.60
2019-03-16T01:40:03.948Z,10.57
2019-03-16T01:42:54.208Z,10.54
2019-03-16T01:45:44.661Z,10.54
2019-03-16T01:48:35.364Z,10.57
2019-03-16T01:51:25.827Z,10.60
2019-03-16T01:54:17.293Z,10.63
2019-03-16T01:57:07.730Z,10.67
2019-03-16T01:59:57.688Z,10.60
2019-03-16T02:02:55.076Z,10.60
2019-03-16T02:05:39.892Z,10.58
2019-03-16T02:08:30.115Z,10.62
2019-03-16T02:11:20.127Z,10.62
2019-03-16T02:14:10.550Z,10.56
2019-03-16T02:17:03.586Z,10.59
2019-03-16T02:19:53.909Z,10.59
2019-03-16T02:22:43.892Z,10.58
2019-03-16T02:25:35.383Z,10.57
2019-03-16T02:28:25.845Z,10.57
2019-03-16T02:31:16.342Z,10.56
2019-03-16T02:34:06.378Z,10.40
2019-03-16T02:36:56.468Z,10.50
2019-03-16T02:39:46.778Z,10.43
2019-03-16T02:42:37.028Z,10.48
2019-03-16T02:45:27.314Z,10.38
2019-03-16T02:48:17.726Z,10.37
2019-03-16T02:51:07.974Z,10.35
2019-03-16T02:53:58.302Z,10.28
2019-03-16T02:56:48.841Z,10.32
2019-03-16T02:59:39.407Z,10.28
2019-03-16T03:02:29.438Z,10.35
2019-03-16T03:05:19.984Z,10.23
2019-03-16T03:08:10.261Z,10.20
2019-03-16T03:11:00.269Z,10.23
2019-03-16T03:13:50.557Z,10.29
2019-03-16T03:16:40.738Z,10.26
2019-03-16T03:19:30.869Z,10.23
2019-03-16T03:22:21.383Z,10.17
2019-03-16T03:25:12.047Z,10.20
2019-03-16T03:28:02.493Z,10.19
2019-03-16T03:30:52.873Z,10.24
2019-03-16T03:33:58.435Z,10.24
2019-03-16T03:36:34.512Z,10.25
2019-03-16T03:39:24.754Z,10.16
2019-03-16T03:42:15.163Z,10.16
2019-03-16T03:45:05.367Z,10.08
2019-03-16T03:47:55.619Z,10.03
2019-03-16T03:50:45.893Z,10.08
2019-03-16T03:53:36.295Z,10.11
2019-03-16T03:56:26.736Z,10.11
2019-03-16T03:59:16.953Z,10.13
2019-03-16T04:02:07.023Z,10.06
2019-03-16T04:04:57.234Z,10.00
2019-03-16T04:07:47.577Z,10.01
2019-03-16T04:10:37.845Z,10.07
2019-03-16T04:13:28.161Z,10.11
2019-03-16T04:16:18.362Z,10.15
2019-03-16T04:19:08.794Z,10.20
2019-03-16T04:21:58.920Z,10.18
2019-03-16T04:24:49.442Z,10.23
2019-03-16T04:27:39.531Z,10.20
2019-03-16T04:30:30.111Z,10.20
2019-03-16T04:33:20.625Z,10.25
2019-03-16T04:36:11.035Z,10.33
2019-03-16T04:39:01.005Z,10.47
2019-03-16T04:41:52.513Z,10.51
2019-03-16T04:44:42.730Z,10.47
2019-03-16T04:47:32.909Z,10.42
2019-03-16T04:50:23.028Z,10.47
2019-03-16T04:53:13.575Z,10.51
2019-03-16T04:56:04.054Z,10.67
2019-03-16T04:58:54.820Z,10.97
2019-03-16T05:01:45.082Z,11.28
2019-03-16T05:04:42.473Z,11.65
2019-03-16T05:07:26.709Z,12.04
2019-03-16T05:10:16.988Z,12.43
2019-03-16T05:13:07.287Z,12.71
2019-03-16T05:15:57.601Z,13.30
2019-03-16T05:18:48.254Z,13.37
2019-03-16T05:21:38.672Z,14.09
2019-03-16T05:24:29.002Z,14.61
2019-03-16T05:27:20.066Z,15.06
2019-03-16T05:30:11.719Z,16.08
2019-03-16T05:33:01.906Z,17.23
2019-03-16T05:35:52.174Z,18.58
2019-03-16T05:38:42.868Z,18.58
2019-03-16T05:41:33.146Z,18.49
2019-03-16T05:44:23.447Z,20.18
2019-03-16T05:47:13.708Z,21.08
2019-03-16T05:50:03.802Z,21.34
2019-03-16T05:52:53.955Z,21.10
2019-03-16T05:55:44.654Z,20.55
2019-03-16T05:58:36.976Z,20.83
2019-03-16T06:01:27.130Z,20.17
2019-03-16T06:04:17.547Z,20.44
2019-03-16T06:07:08.584Z,22.70
2019-03-16T06:09:59.198Z,24.05
2019-03-16T06:12:50.128Z,24.62
2019-03-16T06:15:40.315Z,25.69
2019-03-16T06:18:30.909Z,26.45
2019-03-16T06:21:21.139Z,27.09
2019-03-16T06:24:11.890Z,27.33
2019-03-16T06:27:02.741Z,27.79
2019-03-16T06:29:54.365Z,28.58
2019-03-16T06:32:45.224Z,28.17
2019-03-16T06:35:36.082Z,29.66
2019-03-16T06:38:26.954Z,29.60
2019-03-16T06:41:17.783Z,29.91
2019-03-16T06:44:08.824Z,30.24
2019-03-16T06:46:59.809Z,29.79
2019-03-16T06:49:50.737Z,29.67
2019-03-16T06:52:41.816Z,29.60
2019-03-16T06:55:32.616Z,30.10
2019-03-16T06:58:23.633Z,30.10
2019-03-16T07:01:14.082Z,29.83
2019-03-16T07:04:05.090Z,31.06
2019-03-16T07:06:55.917Z,30.91
2019-03-16T07:09:46.774Z,31.32
2019-03-16T07:12:37.324Z,31.32
2019-03-16T07:15:28.277Z,32.43
2019-03-16T07:18:18.987Z,33.03
2019-03-16T07:21:10.626Z,33.03
2019-03-16T07:24:01.541Z,34.29
2019-03-16T07:26:52.286Z,34.53
2019-03-16T07:29:42.941Z,34.74
2019-03-16T07:32:33.904Z,35.48
2019-03-16T07:35:24.529Z,35.65
2019-03-16T07:38:15.232Z,34.86
2019-03-16T07:41:05.974Z,35.51
2019-03-16T07:43:56.947Z,35.68
2019-03-16T07:46:47.843Z,35.50
2019-03-16T07:49:39.116Z,35.52
2019-03-16T07:52:29.479Z,35.93
2019-03-16T07:55:20.111Z,36.56
2019-03-16T07:58:10.601Z,35.53
2019-03-16T08:01:03.361Z,35.10
2019-03-16T08:03:53.084Z,36.33
2019-03-16T08:06:44.069Z,36.20
2019-03-16T08:09:34.954Z,35.32
2019-03-16T08:12:25.803Z,35.01
2019-03-16T08:15:16.798Z,33.89
2019-03-16T08:18:08.152Z,31.23
2019-03-16T08:20:59.121Z,32.43
2019-03-16T08:23:49.909Z,29.98
2019-03-16T08:26:40.776Z,27.58
2019-03-16T08:29:31.467Z,26.84
2019-03-16T08:32:25.220Z,26.51
2019-03-16T08:35:14.282Z,25.53
2019-03-16T08:38:04.902Z,25.72
2019-03-16T08:40:55.733Z,24.47
2019-03-16T08:43:46.485Z,24.21
2019-03-16T08:46:37.482Z,24.29
2019-03-16T08:49:28.367Z,23.50
2019-03-16T08:52:19.580Z,22.79
2019-03-16T08:55:10.654Z,22.84
2019-03-16T08:58:06.365Z,23.03
2019-03-16T09:00:53.600Z,22.95
2019-03-16T09:03:44.165Z,22.93
2019-03-16T09:06:34.539Z,22.54
2019-03-16T09:09:27.788Z,22.13
2019-03-16T09:12:17.989Z,22.42
2019-03-16T09:15:10.441Z,22.92
2019-03-16T09:18:03.135Z,23.98
2019-03-16T09:20:54.156Z,24.41
2019-03-16T09:23:44.639Z,25.02
2019-03-16T09:26:35.573Z,26.49
2019-03-16T09:29:26.434Z,26.82
2019-03-16T09:32:19.222Z,27.22
2019-03-16T09:35:09.462Z,26.47
2019-03-16T09:38:05.245Z,24.18
2019-03-16T09:40:54.875Z,22.35
2019-03-16T09:43:45.620Z,20.76
2019-03-16T09:46:35.782Z,20.08
2019-03-16T09:49:26.518Z,20.30
2019-03-16T09:52:16.773Z,19.55
2019-03-16T09:55:07.116Z,19.46
2019-03-16T09:57:57.254Z,19.16
2019-03-16T10:00:47.632Z,19.49
2019-03-16T10:03:37.688Z,19.48
2019-03-16T10:06:27.925Z,19.63
2019-03-16T10:09:18.265Z,19.50
2019-03-16T10:12:08.557Z,19.40
2019-03-16T10:14:58.681Z,19.35
2019-03-16T10:17:48.978Z,19.39
2019-03-16T10:20:39.209Z,19.39
2019-03-16T10:23:29.622Z,19.42
2019-03-16T10:26:19.762Z,19.20
2019-03-16T10:29:10.086Z,19.20
2019-03-16T10:32:00.629Z,18.83
2019-03-16T10:34:50.900Z,18.73
2019-03-16T10:37:41.076Z,18.58
2019-03-16T10:40:32.552Z,18.34
2019-03-16T10:43:22.849Z,18.10
2019-03-16T10:46:13.668Z,18.11
2019-03-16T10:49:03.942Z,18.09
2019-03-16T10:51:54.203Z,18.17
2019-03-16T10:54:44.597Z,18.17
2019-03-16T10:57:34.838Z,18.03
2019-03-16T11:00:24.929Z,18.18
2019-03-16T11:03:15.132Z,18.21
2019-03-16T11:06:05.781Z,18.34
2019-03-16T11:08:56.238Z,18.36
2019-03-16T11:11:46.281Z,18.38
2019-03-16T11:14:36.234Z,18.24
2019-03-16T11:17:26.544Z,18.15
2019-03-16T11:20:16.669Z,18.17
2019-03-16T11:23:06.921Z,18.25
2019-03-16T11:25:57.323Z,18.52
2019-03-16T11:28:47.623Z,18.72
2019-03-16T11:31:38.164Z,18.90
2019-03-16T11:34:28.364Z,19.00
2019-03-16T11:37:18.781Z,18.99
2019-03-16T11:40:11.371Z,18.84
2019-03-16T11:43:02.020Z,18.84
2019-03-16T11:45:52.210Z,18.84
2019-03-16T11:48:42.516Z,18.89
2019-03-16T11:51:33.040Z,18.89
2019-03-16T11:54:23.363Z,18.94
2019-03-16T11:57:13.559Z,19.23
2019-03-16T12:00:03.594Z,19.23
2019-03-16T12:02:54.022Z,19.00
2019-03-16T12:05:44.497Z,19.32
2019-03-16T12:08:34.882Z,19.32
2019-03-16T12:11:26.192Z,19.44
2019-03-16T12:14:16.541Z,19.60
2019-03-16T12:17:06.810Z,19.65
2019-03-16T12:19:56.898Z,19.78
2019-03-16T12:22:47.241Z,19.81
2019-03-16T12:25:37.382Z,19.77
2019-03-16T12:28:28.063Z,19.78
2019-03-16T12:31:18.266Z,19.65
2019-03-16T12:34:08.708Z,19.79
2019-03-16T12:36:59.061Z,19.72
2019-03-16T12:39:49.996Z,19.75
2019-03-16T12:42:40.270Z,19.85
2019-03-16T12:45:30.764Z,19.93
2019-03-16T12:48:20.973Z,19.93
2019-03-16T12:51:11.324Z,19.81
2019-03-16T12:54:01.553Z,19.63
2019-03-16T12:56:51.906Z,19.67
2019-03-16T12:59:46.882Z,19.71
2019-03-16T13:02:36.201Z,19.57
2019-03-16T13:05:26.492Z,19.56
2019-03-16T13:08:16.975Z,19.65
2019-03-16T13:11:07.316Z,19.76
2019-03-16T13:13:59.204Z,19.78
2019-03-16T13:16:49.662Z,20.02
2019-03-16T13:19:40.248Z,20.13
2019-03-16T13:22:30.605Z,20.01
2019-03-16T13:25:20.679Z,20.31
2019-03-16T13:28:10.688Z,20.42
2019-03-16T13:31:00.925Z,20.11
2019-03-16T13:33:53.338Z,20.07
2019-03-16T13:36:43.103Z,20.01
2019-03-16T13:39:33.371Z,20.00
2019-03-16T13:42:23.777Z,19.92
2019-03-16T13:45:14.062Z,19.96
2019-03-16T13:48:04.527Z,19.93
2019-03-16T13:50:54.975Z,19.97
2019-03-16T13:53:45.473Z,19.86
2019-03-16T13:56:35.700Z,19.84
2019-03-16T13:59:25.991Z,19.80
2019-03-16T14:02:16.285Z,19.83
2019-03-16T14:05:07.072Z,19.77
2019-03-16T14:07:58.671Z,19.95
2019-03-16T14:10:49.348Z,19.84
2019-03-16T14:13:39.893Z,19.81
2019-03-16T14:16:30.141Z,19.82
2019-03-16T14:19:22.646Z,19.90
2019-03-16T14:22:12.986Z,19.94
2019-03-16T14:25:03.438Z,19.88
2019-03-16T14:27:54.333Z,19.93
2019-03-16T14:30:45.300Z,18.96
2019-03-16T14:33:35.488Z,18.74
2019-03-16T14:36:26.224Z,17.82
2019-03-16T14:39:16.632Z,17.50
2019-03-16T14:42:06.657Z,17.44
2019-03-16T14:44:56.911Z,17.46
2019-03-16T14:47:46.943Z,17.34
2019-03-16T14:50:37.463Z,17.50
2019-03-16T14:53:27.711Z,17.35
2019-03-16T14:56:18.306Z,17.31
2019-03-16T14:59:08.722Z,17.20
2019-03-16T15:01:59.185Z,17.11
2019-03-16T15:04:49.506Z,17.12
2019-03-16T15:07:41.578Z,17.09
2019-03-16T15:10:31.705Z,17.38
2019-03-16T15:13:22.011Z,17.49
2019-03-16T15:16:12.081Z,17.59
2019-03-16T15:19:02.335Z,17.85
2019-03-16T15:21:52.910Z,17.97
2019-03-16T15:24:43.295Z,18.17
2019-03-16T15:27:33.657Z,18.22
2019-03-16T15:30:24.039Z,18.19
2019-03-16T15:33:14.573Z,18.04
2019-03-16T15:36:04.876Z,18.21
2019-03-16T15:38:54.912Z,18.32
2019-03-16T15:41:45.355Z,18.40
2019-03-16T15:44:38.036Z,18.29
2019-03-16T15:47:29.901Z,18.36
2019-03-16T15:50:19.716Z,18.40
2019-03-16T15:53:09.826Z,17.78
2019-03-16T15:56:00.148Z,17.43
2019-03-16T15:58:50.446Z,17.29
2019-03-16T16:01:40.869Z,17.34
2019-03-16T16:04:31.492Z,17.32
2019-03-16T16:07:21.962Z,17.05
2019-03-16T16:10:12.948Z,17.03
2019-03-16T16:13:03.173Z,16.90
2019-03-16T16:15:53.279Z,16.77
2019-03-16T16:18:43.669Z,16.64
2019-03-16T16:21:34.054Z,16.46
2019-03-16T16:24:24.308Z,16.51
2019-03-16T16:27:14.620Z,16.48
2019-03-16T16:30:05.858Z,16.53
2019-03-16T16:32:56.158Z,16.53
2019-03-16T16:35:47.023Z,16.34
2019-03-16T16:38:38.158Z,16.31
2019-03-16T16:41:28.588Z,16.36
2019-03-16T16:44:18.627Z,16.32
2019-03-16T16:47:08.905Z,16.29
2019-03-16T16:49:59.103Z,16.33
2019-03-16T16:52:49.720Z,16.32
2019-03-16T16:55:40.086Z,16.29
2019-03-16T16:58:30.710Z,16.31
2019-03-16T17:01:29.229Z,16.36
2019-03-16T17:04:13.092Z,16.32
2019-03-16T17:07:03.851Z,16.36
2019-03-16T17:09:54.300Z,16.28
2019-03-16T17:12:45.005Z,16.22
2019-03-16T17:15:35.407Z,16.19
2019-03-16T17:18:25.775Z,16.10
2019-03-16T17:21:15.803Z,16.07
2019-03-16T17:24:06.103Z,15.98
2019-03-16T17:26:56.396Z,15.89
2019-03-16T17:29:46.743Z,15.96
2019-03-16T17:32:37.036Z,15.89
2019-03-16T17:35:29.047Z,15.91
2019-03-16T17:38:21.842Z,15.90
2019-03-16T17:41:12.221Z,15.87
2019-03-16T17:44:02.549Z,15.93
2019-03-16T17:46:52.955Z,15.87
2019-03-16T17:49:43.169Z,15.91
2019-03-16T17:52:33.589Z,15.91
2019-03-16T17:55:23.800Z,15.97
2019-03-16T17:58:13.856Z,15.96
2019-03-16T18:01:04.194Z,15.95
2019-03-16T18:03:55.121Z,15.98
2019-03-16T18:06:45.525Z,15.98
2019-03-16T18:09:35.689Z,15.98
2019-03-16T18:12:25.963Z,15.98
2019-03-16T18:15:16.156Z,15.94
2019-03-16T18:18:06.610Z,15.93
2019-03-16T18:20:56.983Z,15.92
2019-03-16T18:23:47.241Z,15.90
2019-03-16T18:26:37.763Z,15.88
2019-03-16T18:29:27.974Z,15.86
2019-03-16T18:32:18.269Z,15.83
2019-03-16T18:35:08.936Z,15.79
2019-03-16T18:37:59.734Z,15.81
2019-03-16T18:40:50.157Z,15.70
2019-03-16T18:43:40.333Z,15.66
2019-03-16T18:46:30.728Z,15.60
2019-03-16T18:49:21.309Z,15.55
2019-03-16T18:52:11.725Z,15.42
2019-03-16T18:55:01.765Z,15.31
2019-03-16T18:57:52.377Z,15.35
2019-03-16T19:00:44.682Z,15.47
2019-03-16T19:03:35.028Z,15.49
2019-03-16T19:06:25.343Z,15.53
2019-03-16T19:09:15.541Z,15.54
2019-03-16T19:12:06.021Z,15.57
2019-03-16T19:14:56.022Z,15.55
2019-03-16T19:17:58.124Z,15.55
2019-03-16T19:20:38.496Z,15.57
2019-03-16T19:23:28.996Z,15.63
2019-03-16T19:26:19.327Z,15.68
2019-03-16T19:29:09.869Z,15.64
2019-03-16T19:32:00.119Z,15.72
2019-03-16T19:34:51.721Z,15.76
2019-03-16T19:37:41.961Z,15.77
2019-03-16T19:40:32.336Z,15.77
2019-03-16T19:43:22.572Z,15.80
2019-03-16T19:46:13.216Z,15.75
2019-03-16T19:49:03.143Z,15.76
2019-03-16T19:51:53.688Z,15.79
2019-03-16T19:54:43.906Z,15.83
2019-03-16T19:57:34.525Z,15.88
2019-03-16T20:00:24.585Z,15.89
2019-03-16T20:03:14.930Z,15.85
2019-03-16T20:06:05.297Z,15.76
2019-03-16T20:08:56.106Z,15.72
2019-03-16T20:11:46.274Z,15.75
2019-03-16T20:14:36.633Z,15.73
2019-03-16T20:17:26.609Z,15.74
2019-03-16T20:20:16.798Z,15.76
2019-03-16T20:23:06.903Z,15.67
2019-03-16T20:25:57.842Z,15.61
2019-03-16T20:28:48.023Z,15.56
2019-03-16T20:31:46.799Z,15.48
2019-03-16T20:34:32.240Z,15.37
2019-03-16T20:37:22.825Z,15.34
2019-03-16T20:40:12.811Z,15.19
2019-03-16T20:43:03.208Z,15.22
2019-03-16T20:45:53.203Z,15.17
2019-03-16T20:48:43.518Z,15.07
2019-03-16T20:51:33.486Z,15.04
2019-03-16T20:54:23.946Z,14.99
2019-03-16T20:57:13.928Z,14.94
2019-03-16T21:00:05.083Z,14.92
2019-03-16T21:02:55.571Z,14.86
2019-03-16T21:05:45.877Z,14.84
2019-03-16T21:08:36.154Z,14.76
2019-03-16T21:11:26.808Z,14.62
2019-03-16T21:14:17.069Z,14.50
2019-03-16T21:17:07.331Z,14.27
2019-03-16T21:19:57.626Z,14.25
2019-03-16T21:22:47.795Z,14.06
2019-03-16T21:25:38.050Z,14.02
2019-03-16T21:28:28.510Z,14.00
2019-03-16T21:31:18.900Z,13.95
2019-03-16T21:34:09.306Z,13.99
2019-03-16T21:36:59.579Z,14.02
2019-03-16T21:39:50.242Z,14.05
2019-03-16T21:42:44.592Z,14.09
2019-03-16T21:45:38.477Z,14.09
2019-03-16T21:48:28.620Z,14.10
2019-03-16T21:51:19.177Z,14.16
2019-03-16T21:54:12.282Z,14.14
2019-03-16T21:57:03.298Z,14.20
2019-03-16T21:59:54.294Z,14.21
2019-03-16T22:02:44.337Z,14.20
2019-03-16T22:05:34.873Z,14.18
2019-03-16T22:08:25.141Z,14.22
2019-03-16T22:11:15.178Z,14.28
2019-03-16T22:14:05.354Z,14.25
2019-03-16T22:16:55.689Z,14.13
2019-03-16T22:19:46.521Z,14.16
2019-03-16T22:22:36.934Z,14.22
2019-03-16T22:25:27.212Z,14.16
2019-03-16T22:28:17.162Z,14.16
2019-03-16T22:31:07.451Z,14.20
2019-03-16T22:33:57.674Z,14.20
2019-03-16T22:36:48.059Z,14.14
2019-03-16T22:39:38.362Z,14.20
2019-03-16T22:42:28.516Z,14.18
2019-03-16T22:45:18.753Z,14.16
2019-03-16T22:48:09.323Z,14.20
2019-03-16T22:50:59.760Z,14.17
2019-03-16T22:53:50.169Z,14.11
2019-03-16T22:56:40.558Z,14.10
2019-03-16T22:59:30.889Z,14.09
2019-03-16T23:02:21.136Z,14.07
2019-03-16T23:05:11.908Z,14.07
2019-03-16T23:08:02.505Z,14.12
2019-03-16T23:10:52.831Z,14.19
2019-03-16T23:13:42.900Z,14.20
2019-03-16T23:16:33.177Z,14.09
2019-03-16T23:19:23.440Z,14.03
2019-03-16T23:22:13.711Z,13.97
2019-03-16T23:25:04.352Z,13.83
2019-03-16T23:27:54.626Z,13.88
2019-03-16T23:30:45.208Z,13.99
2019-03-16T23:33:35.487Z,14.23
2019-03-16T23:36:25.719Z,14.34
2019-03-16T23:39:16.025Z,14.36
2019-03-16T23:42:06.382Z,14.44
2019-03-16T23:44:57.919Z,14.51
2019-03-16T23:47:48.108Z,14.59
2019-03-16T23:50:38.486Z,14.61
2019-03-16T23:53:28.858Z,14.62
2019-03-16T23:56:19.021Z,14.60
2019-03-16T23:59:09.230Z,14.64
